sensor_id;sensor_type;location;lat;lon;timestamp;P1;durP1;ratioP1;P2;durP2;ratioP2
53843;SDS011;39744;53.314;5.710;2023-07-29T00:00:38;10.32;;;3.55;;
53843;SDS011;39744;53.314;5.710;2023-07-29T00:03:05;8.50;;;3.78;;
53843;SDS011;39744;53.314;5.710;2023-07-29T00:05:31;8.10;;;3.90;;
53843;SDS011;39744;53.314;5.710;2023-07-29T00:07:57;10.80;;;4.10;;
53843;SDS011;39744;53.314;5.710;2023-07-29T00:10:23;9.10;;;4.05;;
53843;SDS011;39744;53.314;5.710;2023-07-29T00:12:49;7.18;;;3.63;;
53843;SDS011;39744;53.314;5.710;2023-07-29T00:15:15;9.02;;;4.18;;
53843;SDS011;39744;53.314;5.710;2023-07-29T00:17:41;11.07;;;4.70;;
53843;SDS011;39744;53.314;5.710;2023-07-29T00:20:07;9.35;;;4.43;;
53843;SDS011;39744;53.314;5.710;2023-07-29T00:22:34;12.35;;;4.30;;
53843;SDS011;39744;53.314;5.710;2023-07-29T00:25:00;9.13;;;4.78;;
53843;SDS011;39744;53.314;5.710;2023-07-29T00:27:26;12.73;;;5.07;;
53843;SDS011;39744;53.314;5.710;2023-07-29T00:29:52;11.05;;;5.05;;
53843;SDS011;39744;53.314;5.710;2023-07-29T00:32:18;13.02;;;5.07;;
53843;SDS011;39744;53.314;5.710;2023-07-29T00:34:44;11.70;;;5.38;;
53843;SDS011;39744;53.314;5.710;2023-07-29T00:37:10;11.35;;;5.75;;
53843;SDS011;39744;53.314;5.710;2023-07-29T00:39:37;10.73;;;5.20;;
53843;SDS011;39744;53.314;5.710;2023-07-29T00:42:03;12.23;;;5.63;;
53843;SDS011;39744;53.314;5.710;2023-07-29T00:44:30;9.85;;;5.13;;
53843;SDS011;39744;53.314;5.710;2023-07-29T00:46:59;18.05;;;6.07;;
53843;SDS011;39744;53.314;5.710;2023-07-29T00:49:26;13.60;;;6.30;;
53843;SDS011;39744;53.314;5.710;2023-07-29T00:51:52;11.30;;;5.97;;
53843;SDS011;39744;53.314;5.710;2023-07-29T00:54:18;9.32;;;5.07;;
53843;SDS011;39744;53.314;5.710;2023-07-29T00:56:44;11.77;;;5.72;;
53843;SDS011;39744;53.314;5.710;2023-07-29T00:59:10;13.77;;;6.20;;
53843;SDS011;39744;53.314;5.710;2023-07-29T01:01:36;13.25;;;6.07;;
53843;SDS011;39744;53.314;5.710;2023-07-29T01:04:03;16.05;;;7.00;;
53843;SDS011;39744;53.314;5.710;2023-07-29T01:06:46;13.73;;;6.47;;
53843;SDS011;39744;53.314;5.710;2023-07-29T01:09:36;11.05;;;6.45;;
53843;SDS011;39744;53.314;5.710;2023-07-29T01:12:11;14.57;;;5.82;;
53843;SDS011;39744;53.314;5.710;2023-07-29T01:17:13;11.75;;;5.38;;
53843;SDS011;39744;53.314;5.710;2023-07-29T01:20:01;10.45;;;6.28;;
53843;SDS011;39744;53.314;5.710;2023-07-29T01:22:30;12.20;;;5.72;;
53843;SDS011;39744;53.314;5.710;2023-07-29T01:24:58;13.15;;;4.93;;
53843;SDS011;39744;53.314;5.710;2023-07-29T01:27:24;17.67;;;5.75;;
53843;SDS011;39744;53.314;5.710;2023-07-29T01:29:50;12.00;;;5.60;;
53843;SDS011;39744;53.314;5.710;2023-07-29T01:33:04;10.07;;;5.22;;
53843;SDS011;39744;53.314;5.710;2023-07-29T01:35:07;10.98;;;5.40;;
53843;SDS011;39744;53.314;5.710;2023-07-29T01:37:35;11.57;;;5.80;;
53843;SDS011;39744;53.314;5.710;2023-07-29T01:40:03;13.45;;;5.47;;
53843;SDS011;39744;53.314;5.710;2023-07-29T01:42:30;11.88;;;5.53;;
53843;SDS011;39744;53.314;5.710;2023-07-29T01:44:57;8.57;;;5.05;;
53843;SDS011;39744;53.314;5.710;2023-07-29T01:47:23;10.45;;;5.60;;
53843;SDS011;39744;53.314;5.710;2023-07-29T01:49:49;14.85;;;6.40;;
53843;SDS011;39744;53.314;5.710;2023-07-29T01:52:15;13.48;;;5.65;;
53843;SDS011;39744;53.314;5.710;2023-07-29T01:54:41;14.80;;;6.78;;
53843;SDS011;39744;53.314;5.710;2023-07-29T01:57:07;14.48;;;6.85;;
53843;SDS011;39744;53.314;5.710;2023-07-29T01:59:33;15.20;;;6.00;;
53843;SDS011;39744;53.314;5.710;2023-07-29T02:01:59;16.83;;;7.13;;
53843;SDS011;39744;53.314;5.710;2023-07-29T02:04:25;17.50;;;7.47;;
53843;SDS011;39744;53.314;5.710;2023-07-29T02:06:51;20.15;;;6.35;;
53843;SDS011;39744;53.314;5.710;2023-07-29T02:09:17;18.75;;;7.28;;
53843;SDS011;39744;53.314;5.710;2023-07-29T02:11:43;13.32;;;6.97;;
53843;SDS011;39744;53.314;5.710;2023-07-29T02:14:09;14.75;;;7.65;;
53843;SDS011;39744;53.314;5.710;2023-07-29T02:16:35;13.45;;;7.07;;
53843;SDS011;39744;53.314;5.710;2023-07-29T02:19:02;14.07;;;7.93;;
53843;SDS011;39744;53.314;5.710;2023-07-29T02:21:28;15.55;;;7.50;;
53843;SDS011;39744;53.314;5.710;2023-07-29T02:23:54;15.43;;;7.03;;
53843;SDS011;39744;53.314;5.710;2023-07-29T02:26:21;15.07;;;7.55;;
53843;SDS011;39744;53.314;5.710;2023-07-29T02:28:47;13.88;;;7.60;;
53843;SDS011;39744;53.314;5.710;2023-07-29T02:31:23;13.90;;;7.70;;
53843;SDS011;39744;53.314;5.710;2023-07-29T02:33:49;15.50;;;8.13;;
53843;SDS011;39744;53.314;5.710;2023-07-29T02:36:16;14.23;;;7.75;;
53843;SDS011;39744;53.314;5.710;2023-07-29T02:38:42;13.05;;;7.22;;
53843;SDS011;39744;53.314;5.710;2023-07-29T02:41:08;14.75;;;7.53;;
53843;SDS011;39744;53.314;5.710;2023-07-29T02:43:38;15.20;;;7.13;;
53843;SDS011;39744;53.314;5.710;2023-07-29T02:46:04;15.18;;;7.35;;
53843;SDS011;39744;53.314;5.710;2023-07-29T02:48:30;12.57;;;6.85;;
53843;SDS011;39744;53.314;5.710;2023-07-29T02:50:56;14.25;;;6.40;;
53843;SDS011;39744;53.314;5.710;2023-07-29T02:53:22;17.10;;;6.70;;
53843;SDS011;39744;53.314;5.710;2023-07-29T02:55:48;15.93;;;6.40;;
53843;SDS011;39744;53.314;5.710;2023-07-29T02:58:14;13.55;;;5.80;;
53843;SDS011;39744;53.314;5.710;2023-07-29T03:00:40;12.52;;;5.15;;
53843;SDS011;39744;53.314;5.710;2023-07-29T03:03:10;13.73;;;5.38;;
53843;SDS011;39744;53.314;5.710;2023-07-29T03:05:36;12.23;;;5.40;;
53843;SDS011;39744;53.314;5.710;2023-07-29T03:08:03;11.13;;;4.68;;
53843;SDS011;39744;53.314;5.710;2023-07-29T03:10:29;11.32;;;5.05;;
53843;SDS011;39744;53.314;5.710;2023-07-29T03:12:55;9.90;;;3.95;;
53843;SDS011;39744;53.314;5.710;2023-07-29T03:15:24;11.52;;;4.30;;
53843;SDS011;39744;53.314;5.710;2023-07-29T03:17:51;11.23;;;3.88;;
53843;SDS011;39744;53.314;5.710;2023-07-29T03:20:17;9.68;;;4.05;;
53843;SDS011;39744;53.314;5.710;2023-07-29T03:22:44;9.05;;;3.63;;
53843;SDS011;39744;53.314;5.710;2023-07-29T03:25:10;12.05;;;3.90;;
53843;SDS011;39744;53.314;5.710;2023-07-29T03:27:36;11.73;;;4.22;;
53843;SDS011;39744;53.314;5.710;2023-07-29T03:30:05;9.55;;;3.40;;
53843;SDS011;39744;53.314;5.710;2023-07-29T03:32:32;10.88;;;4.13;;
53843;SDS011;39744;53.314;5.710;2023-07-29T03:34:58;13.07;;;3.80;;
53843;SDS011;39744;53.314;5.710;2023-07-29T03:37:24;8.50;;;3.22;;
53843;SDS011;39744;53.314;5.710;2023-07-29T03:39:50;8.70;;;3.10;;
53843;SDS011;39744;53.314;5.710;2023-07-29T03:42:20;9.60;;;3.38;;
53843;SDS011;39744;53.314;5.710;2023-07-29T03:44:46;13.02;;;4.43;;
53843;SDS011;39744;53.314;5.710;2023-07-29T03:47:12;12.20;;;3.70;;
53843;SDS011;39744;53.314;5.710;2023-07-29T03:49:38;7.22;;;2.88;;
53843;SDS011;39744;53.314;5.710;2023-07-29T03:52:04;8.23;;;3.60;;
53843;SDS011;39744;53.314;5.710;2023-07-29T03:54:30;9.85;;;3.72;;
53843;SDS011;39744;53.314;5.710;2023-07-29T03:56:56;10.68;;;3.67;;
53843;SDS011;39744;53.314;5.710;2023-07-29T03:59:22;5.57;;;3.20;;
53843;SDS011;39744;53.314;5.710;2023-07-29T04:01:48;10.68;;;3.40;;
53843;SDS011;39744;53.314;5.710;2023-07-29T04:04:14;10.98;;;3.67;;
53843;SDS011;39744;53.314;5.710;2023-07-29T04:06:40;8.60;;;3.53;;
53843;SDS011;39744;53.314;5.710;2023-07-29T04:09:06;10.00;;;3.83;;
53843;SDS011;39744;53.314;5.710;2023-07-29T04:11:33;12.18;;;3.70;;
53843;SDS011;39744;53.314;5.710;2023-07-29T04:13:59;8.60;;;3.60;;
53843;SDS011;39744;53.314;5.710;2023-07-29T04:16:25;13.20;;;4.68;;
53843;SDS011;39744;53.314;5.710;2023-07-29T04:18:51;11.57;;;4.05;;
53843;SDS011;39744;53.314;5.710;2023-07-29T04:21:17;11.80;;;4.00;;
53843;SDS011;39744;53.314;5.710;2023-07-29T04:23:43;7.75;;;3.85;;
53843;SDS011;39744;53.314;5.710;2023-07-29T04:26:09;10.15;;;3.92;;
53843;SDS011;39744;53.314;5.710;2023-07-29T04:28:35;11.63;;;4.18;;
53843;SDS011;39744;53.314;5.710;2023-07-29T04:31:01;11.07;;;4.43;;
53843;SDS011;39744;53.314;5.710;2023-07-29T04:33:29;8.95;;;4.07;;
53843;SDS011;39744;53.314;5.710;2023-07-29T04:35:55;11.93;;;4.13;;
53843;SDS011;39744;53.314;5.710;2023-07-29T04:38:21;8.98;;;4.07;;
53843;SDS011;39744;53.314;5.710;2023-07-29T04:40:48;8.60;;;3.95;;
53843;SDS011;39744;53.314;5.710;2023-07-29T04:43:14;7.60;;;3.47;;
53843;SDS011;39744;53.314;5.710;2023-07-29T04:45:44;10.90;;;3.47;;
53843;SDS011;39744;53.314;5.710;2023-07-29T04:48:10;10.82;;;3.70;;
53843;SDS011;39744;53.314;5.710;2023-07-29T04:50:36;9.70;;;3.63;;
53843;SDS011;39744;53.314;5.710;2023-07-29T04:53:02;9.90;;;3.60;;
53843;SDS011;39744;53.314;5.710;2023-07-29T04:55:28;9.05;;;3.17;;
53843;SDS011;39744;53.314;5.710;2023-07-29T04:57:54;8.93;;;3.25;;
53843;SDS011;39744;53.314;5.710;2023-07-29T05:00:20;11.60;;;3.90;;
53843;SDS011;39744;53.314;5.710;2023-07-29T05:02:47;9.25;;;3.40;;
53843;SDS011;39744;53.314;5.710;2023-07-29T05:05:13;9.55;;;3.03;;
53843;SDS011;39744;53.314;5.710;2023-07-29T05:07:39;7.78;;;3.38;;
53843;SDS011;39744;53.314;5.710;2023-07-29T05:10:05;10.18;;;3.00;;
53843;SDS011;39744;53.314;5.710;2023-07-29T05:12:31;12.80;;;3.92;;
53843;SDS011;39744;53.314;5.710;2023-07-29T05:14:58;10.25;;;3.50;;
53843;SDS011;39744;53.314;5.710;2023-07-29T05:17:24;8.25;;;3.50;;
53843;SDS011;39744;53.314;5.710;2023-07-29T05:19:50;9.05;;;3.55;;
53843;SDS011;39744;53.314;5.710;2023-07-29T05:22:16;9.75;;;3.50;;
53843;SDS011;39744;53.314;5.710;2023-07-29T05:24:42;9.43;;;3.58;;
53843;SDS011;39744;53.314;5.710;2023-07-29T05:27:08;9.32;;;3.03;;
53843;SDS011;39744;53.314;5.710;2023-07-29T05:29:34;8.30;;;3.35;;
53843;SDS011;39744;53.314;5.710;2023-07-29T05:32:00;7.25;;;3.05;;
53843;SDS011;39744;53.314;5.710;2023-07-29T05:34:26;8.43;;;2.88;;
53843;SDS011;39744;53.314;5.710;2023-07-29T05:36:52;13.63;;;3.38;;
53843;SDS011;39744;53.314;5.710;2023-07-29T05:39:18;11.27;;;3.70;;
53843;SDS011;39744;53.314;5.710;2023-07-29T05:41:44;16.35;;;3.40;;
53843;SDS011;39744;53.314;5.710;2023-07-29T05:44:11;7.25;;;3.33;;
53843;SDS011;39744;53.314;5.710;2023-07-29T05:46:37;8.75;;;3.28;;
53843;SDS011;39744;53.314;5.710;2023-07-29T05:49:03;8.82;;;3.95;;
53843;SDS011;39744;53.314;5.710;2023-07-29T05:51:29;11.93;;;3.38;;
53843;SDS011;39744;53.314;5.710;2023-07-29T05:53:56;9.02;;;3.33;;
53843;SDS011;39744;53.314;5.710;2023-07-29T05:56:22;10.18;;;3.75;;
53843;SDS011;39744;53.314;5.710;2023-07-29T05:58:48;13.70;;;3.45;;
53843;SDS011;39744;53.314;5.710;2023-07-29T06:01:14;10.25;;;3.88;;
53843;SDS011;39744;53.314;5.710;2023-07-29T06:03:40;9.35;;;3.85;;
53843;SDS011;39744;53.314;5.710;2023-07-29T06:06:06;9.65;;;3.22;;
53843;SDS011;39744;53.314;5.710;2023-07-29T06:08:32;10.55;;;3.78;;
53843;SDS011;39744;53.314;5.710;2023-07-29T06:10:59;12.57;;;3.45;;
53843;SDS011;39744;53.314;5.710;2023-07-29T06:13:26;13.43;;;3.78;;
53843;SDS011;39744;53.314;5.710;2023-07-29T06:15:52;9.93;;;3.40;;
53843;SDS011;39744;53.314;5.710;2023-07-29T06:18:18;11.77;;;3.80;;
53843;SDS011;39744;53.314;5.710;2023-07-29T06:20:44;18.80;;;4.05;;
53843;SDS011;39744;53.314;5.710;2023-07-29T06:23:10;9.40;;;3.50;;
53843;SDS011;39744;53.314;5.710;2023-07-29T06:25:36;13.20;;;3.67;;
53843;SDS011;39744;53.314;5.710;2023-07-29T06:28:02;10.55;;;3.33;;
53843;SDS011;39744;53.314;5.710;2023-07-29T06:30:28;13.60;;;3.80;;
53843;SDS011;39744;53.314;5.710;2023-07-29T06:32:54;14.40;;;3.28;;
53843;SDS011;39744;53.314;5.710;2023-07-29T06:35:20;13.10;;;3.53;;
53843;SDS011;39744;53.314;5.710;2023-07-29T06:37:47;13.90;;;3.17;;
53843;SDS011;39744;53.314;5.710;2023-07-29T06:40:13;12.52;;;3.50;;
53843;SDS011;39744;53.314;5.710;2023-07-29T06:42:39;14.20;;;4.03;;
53843;SDS011;39744;53.314;5.710;2023-07-29T06:45:05;11.10;;;3.50;;
53843;SDS011;39744;53.314;5.710;2023-07-29T06:47:31;12.30;;;3.55;;
53843;SDS011;39744;53.314;5.710;2023-07-29T06:49:57;11.30;;;3.20;;
53843;SDS011;39744;53.314;5.710;2023-07-29T06:52:24;12.70;;;3.53;;
53843;SDS011;39744;53.314;5.710;2023-07-29T06:54:50;12.23;;;3.10;;
53843;SDS011;39744;53.314;5.710;2023-07-29T06:57:16;11.57;;;3.42;;
53843;SDS011;39744;53.314;5.710;2023-07-29T06:59:42;10.23;;;2.90;;
53843;SDS011;39744;53.314;5.710;2023-07-29T07:02:08;12.48;;;3.10;;
53843;SDS011;39744;53.314;5.710;2023-07-29T07:04:34;12.15;;;3.53;;
53843;SDS011;39744;53.314;5.710;2023-07-29T07:07:00;14.00;;;3.13;;
53843;SDS011;39744;53.314;5.710;2023-07-29T07:09:26;9.90;;;3.08;;
53843;SDS011;39744;53.314;5.710;2023-07-29T07:11:52;13.88;;;3.15;;
53843;SDS011;39744;53.314;5.710;2023-07-29T07:14:18;12.70;;;3.75;;
53843;SDS011;39744;53.314;5.710;2023-07-29T07:16:45;11.80;;;3.35;;
53843;SDS011;39744;53.314;5.710;2023-07-29T07:19:11;11.85;;;3.08;;
53843;SDS011;39744;53.314;5.710;2023-07-29T07:21:37;7.45;;;2.47;;
53843;SDS011;39744;53.314;5.710;2023-07-29T07:24:03;9.10;;;2.58;;
53843;SDS011;39744;53.314;5.710;2023-07-29T07:26:29;7.05;;;2.28;;
53843;SDS011;39744;53.314;5.710;2023-07-29T07:28:55;5.60;;;2.17;;
53843;SDS011;39744;53.314;5.710;2023-07-29T07:31:21;12.45;;;2.90;;
53843;SDS011;39744;53.314;5.710;2023-07-29T07:33:48;6.93;;;2.30;;
53843;SDS011;39744;53.314;5.710;2023-07-29T07:36:14;11.80;;;3.03;;
53843;SDS011;39744;53.314;5.710;2023-07-29T07:38:40;7.22;;;2.40;;
53843;SDS011;39744;53.314;5.710;2023-07-29T07:41:07;11.00;;;2.55;;
53843;SDS011;39744;53.314;5.710;2023-07-29T07:43:33;7.13;;;2.50;;
53843;SDS011;39744;53.314;5.710;2023-07-29T07:45:59;7.70;;;1.95;;
53843;SDS011;39744;53.314;5.710;2023-07-29T07:48:26;7.18;;;2.20;;
53843;SDS011;39744;53.314;5.710;2023-07-29T07:50:52;12.93;;;3.30;;
53843;SDS011;39744;53.314;5.710;2023-07-29T07:53:18;5.38;;;2.58;;
53843;SDS011;39744;53.314;5.710;2023-07-29T07:55:47;7.72;;;2.30;;
53843;SDS011;39744;53.314;5.710;2023-07-29T07:58:13;8.65;;;2.08;;
53843;SDS011;39744;53.314;5.710;2023-07-29T08:00:39;7.70;;;2.60;;
53843;SDS011;39744;53.314;5.710;2023-07-29T08:03:06;8.73;;;2.28;;
53843;SDS011;39744;53.314;5.710;2023-07-29T08:05:32;9.27;;;2.53;;
53843;SDS011;39744;53.314;5.710;2023-07-29T08:07:58;7.30;;;2.45;;
53843;SDS011;39744;53.314;5.710;2023-07-29T08:10:25;11.25;;;2.70;;
53843;SDS011;39744;53.314;5.710;2023-07-29T08:12:51;14.02;;;2.65;;
53843;SDS011;39744;53.314;5.710;2023-07-29T08:15:17;7.47;;;2.70;;
53843;SDS011;39744;53.314;5.710;2023-07-29T08:17:45;7.97;;;2.08;;
53843;SDS011;39744;53.314;5.710;2023-07-29T08:20:11;10.00;;;1.90;;
53843;SDS011;39744;53.314;5.710;2023-07-29T08:22:37;6.85;;;2.13;;
53843;SDS011;39744;53.314;5.710;2023-07-29T08:25:03;9.38;;;2.20;;
53843;SDS011;39744;53.314;5.710;2023-07-29T08:27:29;5.45;;;1.95;;
53843;SDS011;39744;53.314;5.710;2023-07-29T08:29:55;7.07;;;1.98;;
53843;SDS011;39744;53.314;5.710;2023-07-29T08:32:21;5.25;;;2.20;;
53843;SDS011;39744;53.314;5.710;2023-07-29T08:34:47;5.75;;;2.40;;
53843;SDS011;39744;53.314;5.710;2023-07-29T08:37:13;5.97;;;2.60;;
53843;SDS011;39744;53.314;5.710;2023-07-29T08:39:39;7.72;;;2.00;;
53843;SDS011;39744;53.314;5.710;2023-07-29T08:42:08;6.55;;;1.90;;
53843;SDS011;39744;53.314;5.710;2023-07-29T08:44:43;5.05;;;1.77;;
53843;SDS011;39744;53.314;5.710;2023-07-29T08:47:09;8.43;;;2.35;;
53843;SDS011;39744;53.314;5.710;2023-07-29T08:49:36;5.55;;;2.08;;
53843;SDS011;39744;53.314;5.710;2023-07-29T08:52:02;8.98;;;1.98;;
53843;SDS011;39744;53.314;5.710;2023-07-29T08:54:29;5.50;;;1.92;;
53843;SDS011;39744;53.314;5.710;2023-07-29T08:56:55;7.05;;;2.10;;
53843;SDS011;39744;53.314;5.710;2023-07-29T08:59:22;6.72;;;2.00;;
53843;SDS011;39744;53.314;5.710;2023-07-29T09:01:48;7.30;;;1.95;;
53843;SDS011;39744;53.314;5.710;2023-07-29T09:04:15;6.18;;;1.90;;
53843;SDS011;39744;53.314;5.710;2023-07-29T09:06:41;7.07;;;1.95;;
53843;SDS011;39744;53.314;5.710;2023-07-29T09:09:08;6.53;;;2.13;;
53843;SDS011;39744;53.314;5.710;2023-07-29T09:11:34;7.22;;;1.98;;
53843;SDS011;39744;53.314;5.710;2023-07-29T09:14:00;7.47;;;2.10;;
53843;SDS011;39744;53.314;5.710;2023-07-29T09:16:27;6.55;;;2.20;;
53843;SDS011;39744;53.314;5.710;2023-07-29T09:18:53;8.00;;;1.92;;
53843;SDS011;39744;53.314;5.710;2023-07-29T09:21:23;7.18;;;1.70;;
53843;SDS011;39744;53.314;5.710;2023-07-29T09:23:51;6.18;;;1.95;;
53843;SDS011;39744;53.314;5.710;2023-07-29T09:26:27;5.53;;;1.80;;
53843;SDS011;39744;53.314;5.710;2023-07-29T09:28:54;6.50;;;1.85;;
53843;SDS011;39744;53.314;5.710;2023-07-29T09:31:21;8.68;;;1.80;;
53843;SDS011;39744;53.314;5.710;2023-07-29T09:33:47;4.47;;;1.88;;
53843;SDS011;39744;53.314;5.710;2023-07-29T09:36:13;5.75;;;1.67;;
53843;SDS011;39744;53.314;5.710;2023-07-29T09:38:39;9.32;;;2.05;;
53843;SDS011;39744;53.314;5.710;2023-07-29T09:41:05;6.65;;;2.05;;
53843;SDS011;39744;53.314;5.710;2023-07-29T09:43:32;5.25;;;1.90;;
53843;SDS011;39744;53.314;5.710;2023-07-29T09:46:02;5.85;;;1.80;;
53843;SDS011;39744;53.314;5.710;2023-07-29T09:48:32;10.15;;;2.15;;
53843;SDS011;39744;53.314;5.710;2023-07-29T09:50:58;7.60;;;1.88;;
53843;SDS011;39744;53.314;5.710;2023-07-29T09:53:24;5.47;;;1.70;;
53843;SDS011;39744;53.314;5.710;2023-07-29T09:55:50;6.45;;;1.80;;
53843;SDS011;39744;53.314;5.710;2023-07-29T09:58:28;10.48;;;2.83;;
53843;SDS011;39744;53.314;5.710;2023-07-29T10:00:54;5.90;;;1.60;;
53843;SDS011;39744;53.314;5.710;2023-07-29T10:03:20;5.35;;;1.80;;
53843;SDS011;39744;53.314;5.710;2023-07-29T10:05:47;5.18;;;1.70;;
53843;SDS011;39744;53.314;5.710;2023-07-29T10:08:13;4.57;;;1.60;;
53843;SDS011;39744;53.314;5.710;2023-07-29T10:10:42;3.67;;;1.60;;
53843;SDS011;39744;53.314;5.710;2023-07-29T10:13:09;7.10;;;1.85;;
53843;SDS011;39744;53.314;5.710;2023-07-29T10:15:35;5.47;;;1.95;;
53843;SDS011;39744;53.314;5.710;2023-07-29T10:18:02;4.97;;;1.65;;
53843;SDS011;39744;53.314;5.710;2023-07-29T10:20:30;5.53;;;1.60;;
53843;SDS011;39744;53.314;5.710;2023-07-29T10:22:59;6.05;;;1.90;;
53843;SDS011;39744;53.314;5.710;2023-07-29T10:25:27;5.75;;;1.90;;
53843;SDS011;39744;53.314;5.710;2023-07-29T10:30:20;5.78;;;1.98;;
53843;SDS011;39744;53.314;5.710;2023-07-29T10:32:46;5.68;;;1.85;;
53843;SDS011;39744;53.314;5.710;2023-07-29T10:35:13;6.93;;;2.40;;
53843;SDS011;39744;53.314;5.710;2023-07-29T10:37:39;6.30;;;2.10;;
53843;SDS011;39744;53.314;5.710;2023-07-29T10:40:07;6.68;;;2.00;;
53843;SDS011;39744;53.314;5.710;2023-07-29T10:42:33;6.65;;;2.15;;
53843;SDS011;39744;53.314;5.710;2023-07-29T10:45:00;8.70;;;2.00;;
53843;SDS011;39744;53.314;5.710;2023-07-29T10:47:27;7.90;;;2.50;;
53843;SDS011;39744;53.314;5.710;2023-07-29T10:49:57;8.32;;;2.15;;
53843;SDS011;39744;53.314;5.710;2023-07-29T10:52:28;7.72;;;1.90;;
53843;SDS011;39744;53.314;5.710;2023-07-29T10:54:54;6.85;;;1.65;;
53843;SDS011;39744;53.314;5.710;2023-07-29T10:59:58;3.10;;;1.40;;
53843;SDS011;39744;53.314;5.710;2023-07-29T11:02:29;3.15;;;1.33;;
53843;SDS011;39744;53.314;5.710;2023-07-29T11:04:55;7.20;;;1.65;;
53843;SDS011;39744;53.314;5.710;2023-07-29T11:07:22;3.90;;;1.48;;
53843;SDS011;39744;53.314;5.710;2023-07-29T11:09:52;5.05;;;1.80;;
53843;SDS011;39744;53.314;5.710;2023-07-29T11:15:03;4.82;;;1.90;;
53843;SDS011;39744;53.314;5.710;2023-07-29T11:17:32;8.82;;;1.85;;
53843;SDS011;39744;53.314;5.710;2023-07-29T11:20:02;5.47;;;1.85;;
53843;SDS011;39744;53.314;5.710;2023-07-29T11:22:28;5.15;;;1.75;;
53843;SDS011;39744;53.314;5.710;2023-07-29T11:24:54;8.88;;;2.40;;
53843;SDS011;39744;53.314;5.710;2023-07-29T11:27:20;6.97;;;1.90;;
53843;SDS011;39744;53.314;5.710;2023-07-29T11:29:46;5.30;;;1.98;;
53843;SDS011;39744;53.314;5.710;2023-07-29T11:32:12;8.20;;;2.40;;
53843;SDS011;39744;53.314;5.710;2023-07-29T11:34:39;5.22;;;2.00;;
53843;SDS011;39744;53.314;5.710;2023-07-29T11:37:05;6.63;;;1.90;;
53843;SDS011;39744;53.314;5.710;2023-07-29T11:39:39;4.57;;;1.60;;
53843;SDS011;39744;53.314;5.710;2023-07-29T11:42:06;5.68;;;2.13;;
53843;SDS011;39744;53.314;5.710;2023-07-29T11:44:32;6.13;;;1.77;;
53843;SDS011;39744;53.314;5.710;2023-07-29T11:46:58;5.15;;;2.13;;
53843;SDS011;39744;53.314;5.710;2023-07-29T11:49:24;9.90;;;2.08;;
53843;SDS011;39744;53.314;5.710;2023-07-29T11:51:50;5.40;;;1.75;;
53843;SDS011;39744;53.314;5.710;2023-07-29T11:54:16;4.18;;;1.75;;
53843;SDS011;39744;53.314;5.710;2023-07-29T11:56:46;8.55;;;2.00;;
53843;SDS011;39744;53.314;5.710;2023-07-29T11:59:12;5.63;;;1.80;;
53843;SDS011;39744;53.314;5.710;2023-07-29T12:01:38;7.15;;;1.98;;
53843;SDS011;39744;53.314;5.710;2023-07-29T12:04:04;3.65;;;1.60;;
53843;SDS011;39744;53.314;5.710;2023-07-29T12:06:30;5.90;;;2.35;;
53843;SDS011;39744;53.314;5.710;2023-07-29T12:08:56;5.68;;;1.90;;
53843;SDS011;39744;53.314;5.710;2023-07-29T12:11:23;7.72;;;1.98;;
53843;SDS011;39744;53.314;5.710;2023-07-29T12:13:49;4.80;;;1.90;;
53843;SDS011;39744;53.314;5.710;2023-07-29T12:16:18;4.90;;;1.80;;
53843;SDS011;39744;53.314;5.710;2023-07-29T12:18:44;5.38;;;2.17;;
53843;SDS011;39744;53.314;5.710;2023-07-29T12:21:10;7.95;;;2.03;;
53843;SDS011;39744;53.314;5.710;2023-07-29T12:23:36;6.70;;;2.10;;
53843;SDS011;39744;53.314;5.710;2023-07-29T12:26:02;7.45;;;1.65;;
53843;SDS011;39744;53.314;5.710;2023-07-29T12:28:29;4.85;;;2.00;;
53843;SDS011;39744;53.314;5.710;2023-07-29T12:30:56;5.22;;;1.90;;
53843;SDS011;39744;53.314;5.710;2023-07-29T12:33:35;10.52;;;2.22;;
53843;SDS011;39744;53.314;5.710;2023-07-29T12:36:02;5.05;;;2.20;;
53843;SDS011;39744;53.314;5.710;2023-07-29T12:38:29;7.10;;;2.65;;
53843;SDS011;39744;53.314;5.710;2023-07-29T12:40:55;8.45;;;2.50;;
53843;SDS011;39744;53.314;5.710;2023-07-29T12:43:21;8.57;;;2.80;;
53843;SDS011;39744;53.314;5.710;2023-07-29T12:45:50;10.00;;;2.47;;
53843;SDS011;39744;53.314;5.710;2023-07-29T12:48:16;8.75;;;2.40;;
53843;SDS011;39744;53.314;5.710;2023-07-29T12:50:42;8.60;;;2.33;;
53843;SDS011;39744;53.314;5.710;2023-07-29T12:53:08;5.65;;;2.42;;
53843;SDS011;39744;53.314;5.710;2023-07-29T12:55:35;8.98;;;2.80;;
53843;SDS011;39744;53.314;5.710;2023-07-29T12:58:02;6.13;;;2.05;;
53843;SDS011;39744;53.314;5.710;2023-07-29T13:00:28;8.23;;;2.72;;
53843;SDS011;39744;53.314;5.710;2023-07-29T13:02:54;6.25;;;2.22;;
53843;SDS011;39744;53.314;5.710;2023-07-29T13:05:21;5.28;;;2.53;;
53843;SDS011;39744;53.314;5.710;2023-07-29T13:07:47;8.02;;;2.60;;
53843;SDS011;39744;53.314;5.710;2023-07-29T13:10:13;6.88;;;2.30;;
53843;SDS011;39744;53.314;5.710;2023-07-29T13:12:39;6.65;;;2.38;;
53843;SDS011;39744;53.314;5.710;2023-07-29T13:15:05;8.88;;;2.28;;
53843;SDS011;39744;53.314;5.710;2023-07-29T13:17:32;12.52;;;2.30;;
53843;SDS011;39744;53.314;5.710;2023-07-29T13:19:58;8.88;;;2.30;;
53843;SDS011;39744;53.314;5.710;2023-07-29T13:22:24;12.63;;;2.80;;
53843;SDS011;39744;53.314;5.710;2023-07-29T13:24:51;5.40;;;2.00;;
53843;SDS011;39744;53.314;5.710;2023-07-29T13:27:17;7.10;;;2.20;;
53843;SDS011;39744;53.314;5.710;2023-07-29T13:29:43;6.60;;;2.30;;
53843;SDS011;39744;53.314;5.710;2023-07-29T13:32:09;9.30;;;2.53;;
53843;SDS011;39744;53.314;5.710;2023-07-29T13:34:35;10.15;;;2.70;;
53843;SDS011;39744;53.314;5.710;2023-07-29T13:37:01;8.70;;;2.55;;
53843;SDS011;39744;53.314;5.710;2023-07-29T13:39:27;5.40;;;2.10;;
53843;SDS011;39744;53.314;5.710;2023-07-29T13:41:54;6.18;;;2.22;;
53843;SDS011;39744;53.314;5.710;2023-07-29T13:44:20;9.77;;;2.55;;
53843;SDS011;39744;53.314;5.710;2023-07-29T13:46:46;9.30;;;2.28;;
53843;SDS011;39744;53.314;5.710;2023-07-29T13:49:12;5.93;;;2.08;;
53843;SDS011;39744;53.314;5.710;2023-07-29T13:51:38;6.90;;;2.58;;
53843;SDS011;39744;53.314;5.710;2023-07-29T13:54:04;6.88;;;2.60;;
53843;SDS011;39744;53.314;5.710;2023-07-29T13:56:30;8.18;;;2.10;;
53843;SDS011;39744;53.314;5.710;2023-07-29T13:58:56;7.22;;;2.22;;
53843;SDS011;39744;53.314;5.710;2023-07-29T14:01:22;7.05;;;2.53;;
53843;SDS011;39744;53.314;5.710;2023-07-29T14:03:49;9.95;;;2.30;;
53843;SDS011;39744;53.314;5.710;2023-07-29T14:06:15;8.13;;;2.38;;
53843;SDS011;39744;53.314;5.710;2023-07-29T14:08:41;8.30;;;2.13;;
53843;SDS011;39744;53.314;5.710;2023-07-29T14:11:07;8.93;;;2.90;;
53843;SDS011;39744;53.314;5.710;2023-07-29T14:13:33;8.85;;;2.75;;
53843;SDS011;39744;53.314;5.710;2023-07-29T14:16:01;10.15;;;2.58;;
53843;SDS011;39744;53.314;5.710;2023-07-29T14:18:27;8.85;;;2.30;;
53843;SDS011;39744;53.314;5.710;2023-07-29T14:20:53;7.75;;;2.38;;
53843;SDS011;39744;53.314;5.710;2023-07-29T14:23:19;8.30;;;2.63;;
53843;SDS011;39744;53.314;5.710;2023-07-29T14:25:45;9.48;;;2.97;;
53843;SDS011;39744;53.314;5.710;2023-07-29T14:28:12;5.43;;;2.20;;
53843;SDS011;39744;53.314;5.710;2023-07-29T14:30:38;5.82;;;2.20;;
53843;SDS011;39744;53.314;5.710;2023-07-29T14:33:06;6.28;;;2.20;;
53843;SDS011;39744;53.314;5.710;2023-07-29T14:35:32;5.88;;;2.25;;
53843;SDS011;39744;53.314;5.710;2023-07-29T14:37:58;8.13;;;2.35;;
53843;SDS011;39744;53.314;5.710;2023-07-29T14:40:24;7.10;;;2.70;;
53843;SDS011;39744;53.314;5.710;2023-07-29T14:42:50;7.57;;;2.35;;
53843;SDS011;39744;53.314;5.710;2023-07-29T14:45:16;5.72;;;2.20;;
53843;SDS011;39744;53.314;5.710;2023-07-29T14:47:42;8.20;;;2.30;;
53843;SDS011;39744;53.314;5.710;2023-07-29T14:50:08;7.03;;;2.25;;